createdAt,value
2023-03-04T07:18:47.746Z,100.00
2023-03-04T07:21:17.417Z,100.00
2023-03-04T07:23:45.291Z,100.00
2023-03-04T07:26:13.127Z,100.00
2023-03-04T07:28:42.766Z,100.00
2023-03-04T07:31:32.128Z,100.00
2023-03-04T07:34:06.758Z,100.00
2023-03-04T07:36:37.005Z,100.00
2023-03-04T07:39:05.855Z,100.00
2023-03-04T07:41:36.305Z,100.00
2023-03-04T07:44:07.040Z,100.00
2023-03-04T07:46:34.858Z,100.00
2023-03-04T07:49:02.209Z,100.00
2023-03-04T07:51:29.745Z,100.00
2023-03-04T07:54:01.048Z,100.00
2023-03-04T07:56:33.957Z,100.00
2023-03-04T07:59:02.215Z,100.00
2023-03-04T08:01:37.913Z,100.00
2023-03-04T08:04:07.983Z,100.00
2023-03-04T08:06:35.984Z,100.00
2023-03-04T08:09:07.708Z,100.00
2023-03-04T08:11:38.434Z,100.00
2023-03-04T08:14:06.321Z,100.00
2023-03-04T08:16:33.768Z,100.00
2023-03-04T08:19:04.180Z,100.00
2023-03-04T08:21:32.607Z,100.00
2023-03-04T08:24:07.863Z,100.00
2023-03-04T08:26:46.757Z,100.00
2023-03-04T08:29:24.767Z,100.00
2023-03-04T08:31:54.396Z,100.00
2023-03-04T08:34:27.407Z,100.00
2023-03-04T08:36:55.034Z,100.00
2023-03-04T08:39:22.476Z,100.00
2023-03-04T08:41:50.308Z,100.00
2023-03-04T08:44:17.676Z,100.00
2023-03-04T08:46:45.011Z,100.00
2023-03-04T08:49:14.445Z,100.00
2023-03-04T08:51:41.829Z,100.00
2023-03-04T08:54:09.149Z,100.00
2023-03-04T08:56:36.450Z,100.00
2023-03-04T08:59:04.109Z,100.00
2023-03-04T09:01:31.517Z,100.00
2023-03-04T09:03:58.916Z,100.00
2023-03-04T09:06:26.290Z,100.00
2023-03-04T09:08:53.623Z,100.00
2023-03-04T09:11:21.024Z,100.00
2023-03-04T09:13:48.447Z,100.00
2023-03-04T09:16:16.876Z,100.00
2023-03-04T09:18:44.367Z,100.00
2023-03-04T09:21:12.210Z,100.00
2023-03-04T09:23:40.973Z,100.00
2023-03-04T09:26:26.858Z,100.00
2023-03-04T09:28:59.636Z,100.00
2023-03-04T09:31:30.078Z,100.00
2023-03-04T09:33:59.484Z,100.00
2023-03-04T09:36:26.853Z,100.00
2023-03-04T09:38:54.198Z,100.00
2023-03-04T09:41:37.619Z,100.00
2023-03-04T09:44:43.218Z,100.00
2023-03-04T09:47:17.612Z,100.00
2023-03-04T09:50:01.267Z,100.00
2023-03-04T09:53:21.303Z,100.00
2023-03-04T09:55:53.000Z,100.00
2023-03-04T09:59:00.207Z,100.00
2023-03-04T10:01:42.617Z,100.00
2023-03-04T10:04:50.964Z,100.00
2023-03-04T10:07:33.416Z,100.00
2023-03-04T10:10:10.642Z,100.00
2023-03-04T10:12:42.814Z,100.00
2023-03-04T10:15:46.202Z,97.42
2023-03-04T10:18:48.370Z,96.97
2023-03-04T10:21:36.261Z,93.81
2023-03-04T10:24:18.789Z,92.63
2023-03-04T10:27:01.531Z,89.01
2023-03-04T10:29:32.637Z,88.83
2023-03-04T10:32:00.484Z,86.73
2023-03-04T10:34:28.169Z,84.68
2023-03-04T10:37:07.536Z,82.16
2023-03-04T10:39:46.291Z,79.26
2023-03-04T10:42:16.477Z,78.55
2023-03-04T10:45:01.072Z,76.92
2023-03-04T10:47:33.548Z,75.06
2023-03-04T10:50:05.650Z,74.71
2023-03-04T10:52:49.969Z,74.41
2023-03-04T10:55:28.410Z,72.63
2023-03-04T10:58:13.521Z,72.44
2023-03-04T11:00:41.247Z,70.88
2023-03-04T11:03:31.922Z,70.37
2023-03-04T11:06:13.367Z,68.95
2023-03-04T11:08:42.583Z,67.91
2023-03-04T11:11:42.950Z,66.26
2023-03-04T11:14:34.679Z,66.94
2023-03-04T11:17:45.355Z,66.52
2023-03-04T11:20:48.278Z,65.27
2023-03-04T11:23:39.517Z,64.29
2023-03-04T11:26:19.522Z,65.17
2023-03-04T11:29:31.621Z,63.85
2023-03-04T11:32:21.325Z,63.14
2023-03-04T11:35:25.344Z,62.75
2023-03-04T11:38:37.723Z,63.82
2023-03-04T11:41:19.191Z,62.00
2023-03-04T11:43:47.720Z,61.67
2023-03-04T11:47:22.837Z,60.63
2023-03-04T11:50:29.397Z,58.77
2023-03-04T11:53:34.086Z,58.52
2023-03-04T11:56:35.258Z,58.19
2023-03-04T11:59:54.398Z,56.25
2023-03-04T12:02:46.974Z,55.72
2023-03-04T12:06:06.244Z,54.32
2023-03-04T12:09:21.726Z,54.33
2023-03-04T12:12:33.599Z,53.97
2023-03-04T12:15:51.418Z,53.25
2023-03-04T12:18:55.838Z,53.98
2023-03-04T12:22:23.316Z,52.65
2023-03-04T12:25:53.728Z,52.52
2023-03-04T12:29:43.116Z,52.86
2023-03-04T12:33:02.576Z,51.96
2023-03-04T12:35:58.795Z,51.29
2023-03-04T12:38:53.599Z,51.87
2023-03-04T12:42:23.243Z,52.72
2023-03-04T12:45:43.857Z,51.59
2023-03-04T12:48:50.242Z,50.83
2023-03-04T12:52:18.117Z,50.48
2023-03-04T12:54:58.184Z,49.58
2023-03-04T12:57:31.636Z,49.48
2023-03-04T13:00:13.300Z,49.06
2023-03-04T13:03:09.299Z,48.47
2023-03-04T13:06:13.889Z,49.01
2023-03-04T13:09:24.075Z,48.14
2023-03-04T13:12:24.677Z,47.25
2023-03-04T13:15:10.221Z,46.79
2023-03-04T13:18:01.546Z,46.49
2023-03-04T13:20:41.884Z,47.17
2023-03-04T13:23:14.964Z,46.13
2023-03-04T13:26:32.911Z,45.55
2023-03-04T13:29:18.592Z,45.63
2023-03-04T13:32:12.671Z,45.49
2023-03-04T13:34:57.934Z,46.61
2023-03-04T13:37:37.029Z,46.13
2023-03-04T13:40:23.433Z,45.29
2023-03-04T13:42:51.383Z,45.72
2023-03-04T13:45:37.389Z,44.55
2023-03-04T13:48:33.146Z,45.03
2023-03-04T13:51:00.731Z,44.35
2023-03-04T13:54:08.092Z,44.69
2023-03-04T13:56:40.668Z,44.77
2023-03-04T13:59:07.745Z,45.15
2023-03-04T14:01:43.041Z,45.95
2023-03-04T14:04:56.292Z,46.07
2023-03-04T14:07:36.770Z,46.03
2023-03-04T14:10:12.333Z,45.59
2023-03-04T14:12:58.856Z,45.05
2023-03-04T14:15:32.108Z,45.39
2023-03-04T14:18:04.730Z,46.28
2023-03-04T14:20:39.600Z,46.00
2023-03-04T14:23:42.527Z,45.52
2023-03-04T14:26:18.056Z,46.50
2023-03-04T14:28:52.684Z,46.29
2023-03-04T14:31:25.105Z,46.79
2023-03-04T14:33:59.848Z,46.64
2023-03-04T14:36:29.581Z,46.24
2023-03-04T14:39:03.260Z,46.19
2023-03-04T14:41:39.413Z,46.37
2023-03-04T14:44:40.508Z,45.97
2023-03-04T14:47:45.350Z,47.16
2023-03-04T14:50:20.178Z,47.79
2023-03-04T14:53:26.119Z,47.33
2023-03-04T14:56:10.575Z,48.44
2023-03-04T14:58:53.432Z,48.33
2023-03-04T15:01:32.414Z,47.27
2023-03-04T15:04:05.867Z,47.22
2023-03-04T15:06:39.222Z,48.17
2023-03-04T15:09:25.409Z,47.79
2023-03-04T15:12:08.299Z,48.15
2023-03-04T15:15:24.784Z,48.71
2023-03-04T15:18:22.990Z,46.70
2023-03-04T15:21:20.203Z,46.59
2023-03-04T15:23:47.964Z,46.47
2023-03-04T15:26:15.394Z,45.98
2023-03-04T15:28:43.410Z,45.32
2023-03-04T15:31:24.158Z,44.31
2023-03-04T15:33:52.533Z,44.92
2023-03-04T15:36:23.992Z,45.47
2023-03-04T15:38:53.569Z,45.17
2023-03-04T15:41:28.033Z,46.17
2023-03-04T15:43:55.578Z,45.45
2023-03-04T15:46:23.107Z,45.86
2023-03-04T15:48:50.818Z,46.28
2023-03-04T15:51:23.151Z,46.32
2023-03-04T15:53:57.600Z,45.67
2023-03-04T15:56:31.773Z,45.68
2023-03-04T15:59:16.579Z,45.35
2023-03-04T16:01:44.147Z,45.50
2023-03-04T16:04:17.647Z,45.89
2023-03-04T16:06:50.385Z,46.73
2023-03-04T16:09:21.079Z,46.81
2023-03-04T16:11:48.573Z,47.26
2023-03-04T16:14:17.084Z,47.39
2023-03-04T16:16:46.487Z,47.85
2023-03-04T16:19:13.801Z,48.15
2023-03-04T16:21:41.580Z,48.65
2023-03-04T16:24:19.933Z,49.40
2023-03-04T16:26:48.425Z,48.58
2023-03-04T16:29:16.854Z,49.22
2023-03-04T16:31:44.363Z,49.53
2023-03-04T16:34:11.999Z,49.61
2023-03-04T16:36:39.513Z,50.32
2023-03-04T16:39:22.763Z,49.92
2023-03-04T16:41:51.625Z,50.42
2023-03-04T16:44:19.144Z,51.21
2023-03-04T16:46:46.532Z,51.20
2023-03-04T16:49:13.859Z,51.20
2023-03-04T16:51:50.239Z,51.90
2023-03-04T16:54:31.814Z,51.28
2023-03-04T16:57:00.208Z,51.50
2023-03-04T16:59:29.235Z,52.44
2023-03-04T17:01:57.174Z,52.90
2023-03-04T17:04:24.863Z,53.33
2023-03-04T17:06:52.385Z,53.87
2023-03-04T17:09:19.745Z,54.02
2023-03-04T17:11:47.322Z,55.27
2023-03-04T17:14:14.637Z,55.46
2023-03-04T17:16:42.719Z,56.10
2023-03-04T17:19:10.026Z,56.71
2023-03-04T17:21:37.303Z,56.52
2023-03-04T17:24:04.856Z,57.67
2023-03-04T17:26:32.648Z,58.05
2023-03-04T17:28:59.974Z,58.85
2023-03-04T17:31:27.312Z,58.79
2023-03-04T17:33:54.611Z,58.78
2023-03-04T17:36:22.118Z,59.66
2023-03-04T17:38:51.928Z,60.24
2023-03-04T17:41:19.697Z,60.19
2023-03-04T17:43:51.766Z,60.52
2023-03-04T17:46:25.541Z,61.35
2023-03-04T17:48:57.378Z,61.54
2023-03-04T17:51:38.694Z,62.05
2023-03-04T17:54:08.622Z,61.93
2023-03-04T17:56:39.897Z,62.05
2023-03-04T17:59:13.776Z,63.54
2023-03-04T18:01:41.680Z,63.30
2023-03-04T18:04:09.076Z,62.48
2023-03-04T18:06:36.407Z,63.59
2023-03-04T18:09:05.636Z,64.21
2023-03-04T18:11:38.699Z,64.32
2023-03-04T18:14:06.521Z,64.48
2023-03-04T18:16:34.764Z,64.58
2023-03-04T18:19:02.938Z,64.88
2023-03-04T18:21:30.785Z,65.73
2023-03-04T18:23:58.640Z,65.22
2023-03-04T18:26:27.177Z,65.58
2023-03-04T18:28:56.850Z,66.10
2023-03-04T18:31:31.636Z,65.62
2023-03-04T18:34:02.624Z,66.73
2023-03-04T18:36:30.682Z,66.19
2023-03-04T18:38:59.536Z,66.56
2023-03-04T18:41:27.866Z,66.31
2023-03-04T18:43:55.696Z,67.45
2023-03-04T18:46:46.936Z,67.75
2023-03-04T18:49:15.582Z,67.43
2023-03-04T18:51:42.987Z,67.43
2023-03-04T18:54:10.514Z,67.87
2023-03-04T18:56:58.660Z,67.49
2023-03-04T19:00:02.471Z,69.13
2023-03-04T19:02:52.671Z,68.91
2023-03-04T19:05:30.019Z,68.67
2023-03-04T19:07:57.450Z,68.51
2023-03-04T19:10:25.813Z,68.74
2023-03-04T19:12:53.158Z,68.72
2023-03-04T19:15:20.526Z,68.76
2023-03-04T19:17:47.870Z,69.16
2023-03-04T19:20:16.240Z,70.45
2023-03-04T19:22:44.479Z,70.59
2023-03-04T19:25:12.605Z,71.23
2023-03-04T19:27:40.001Z,70.88
2023-03-04T19:30:10.128Z,71.39
2023-03-04T19:32:37.647Z,71.73
2023-03-04T19:35:05.617Z,73.44
2023-03-04T19:37:33.091Z,76.45
2023-03-04T19:40:00.362Z,79.05
2023-03-04T19:42:27.804Z,81.93
2023-03-04T19:44:55.369Z,80.11
2023-03-04T19:47:22.700Z,79.64
2023-03-04T19:49:49.991Z,81.68
2023-03-04T19:52:17.318Z,83.06
2023-03-04T19:54:44.595Z,84.28
2023-03-04T19:57:11.922Z,85.24
2023-03-04T19:59:39.266Z,86.34
2023-03-04T20:02:06.570Z,84.46
2023-03-04T20:04:34.040Z,83.21
2023-03-04T20:07:01.384Z,82.89
2023-03-04T20:09:28.695Z,82.49
2023-03-04T20:11:59.083Z,83.77
2023-03-04T20:14:33.467Z,85.54
2023-03-04T20:17:06.834Z,86.08
2023-03-04T20:19:35.250Z,86.99
2023-03-04T20:22:05.676Z,87.68
2023-03-04T20:24:33.139Z,86.19
2023-03-04T20:27:00.862Z,86.38
2023-03-04T20:29:28.946Z,87.74
2023-03-04T20:31:56.429Z,89.15
2023-03-04T20:34:25.444Z,88.26
2023-03-04T20:36:52.834Z,87.44
2023-03-04T20:39:29.237Z,89.05
2023-03-04T20:41:58.912Z,88.31
2023-03-04T20:44:27.044Z,88.71
2023-03-04T20:46:54.398Z,90.13
2023-03-04T20:49:28.668Z,91.84
2023-03-04T20:52:09.091Z,90.35
2023-03-04T20:54:39.042Z,90.04
2023-03-04T20:57:08.069Z,89.95
2023-03-04T20:59:38.977Z,91.12
2023-03-04T21:02:14.876Z,91.52
2023-03-04T21:04:43.882Z,92.34
2023-03-04T21:07:12.148Z,91.27
2023-03-04T21:09:39.463Z,92.87
2023-03-04T21:12:07.748Z,90.57
2023-03-04T21:14:35.106Z,89.46
2023-03-04T21:17:05.048Z,88.43
2023-03-04T21:19:43.488Z,89.09
2023-03-04T21:22:19.009Z,89.71
2023-03-04T21:24:47.920Z,87.94
2023-03-04T21:27:16.937Z,88.60
2023-03-04T21:29:44.703Z,90.61
2023-03-04T21:32:25.582Z,89.38
2023-03-04T21:34:55.198Z,90.56
2023-03-04T21:37:25.602Z,89.20
2023-03-04T21:39:54.850Z,89.00
2023-03-04T21:42:22.519Z,89.65
2023-03-04T21:44:51.484Z,90.76
2023-03-04T21:47:22.214Z,91.55
2023-03-04T21:49:50.278Z,90.49
2023-03-04T21:52:22.614Z,89.79
2023-03-04T21:54:50.156Z,91.12
2023-03-04T21:57:19.206Z,92.46
2023-03-04T21:59:46.794Z,89.40
2023-03-04T22:02:23.949Z,87.82
2023-03-04T22:04:51.329Z,87.52
2023-03-04T22:07:18.707Z,86.80
2023-03-04T22:09:47.066Z,86.42
2023-03-04T22:12:15.840Z,86.25
2023-03-04T22:14:43.776Z,87.14
2023-03-04T22:17:11.149Z,84.10
